Time;durP1;ratioP1;P1;durP2;ratioP2;P2;SDS_P1;SDS_P2;PMS_P1;PMS_P2;Temp;Humidity;BMP_temperature;BMP_pressure;BME280_temperature;BME280_humidity;BME280_pressure;Samples;Min_cycle;Max_cycle;Signal;HPM_P1;HPM_P2
2022/10/11 00:00:05;;;;;;;9.73;4.78;;;;;;;11.23;100.00;96392.72;1030685;28;20023;-67
2022/10/11 00:00:35;;;;;;;7.85;4.55;;;;;;;11.22;100.00;96400.84;1022673;28;20096;-70
2022/10/11 00:01:06;;;;;;;7.22;4.60;;;;;;;11.23;100.00;96397.97;1022608;29;20311;-68
2022/10/11 00:01:36;;;;;;;8.70;4.32;;;;;;;11.22;100.00;96400.84;1022413;29;20030;-69
2022/10/11 00:02:06;;;;;;;12.40;5.63;;;;;;;11.21;100.00;96409.78;1022535;28;20023;-68
2022/10/11 00:02:37;;;;;;;7.25;4.40;;;;;;;11.23;100.00;96397.16;1022511;28;20019;-69
2022/10/11 00:03:07;;;;;;;8.60;4.97;;;;;;;11.21;100.00;96400.06;1026426;28;20030;-68
2022/10/11 00:03:38;;;;;;;8.55;4.10;;;;;;;11.24;100.00;96404.03;1028919;28;20065;-69
2022/10/11 00:04:08;;;;;;;11.63;4.50;;;;;;;11.25;100.00;96406.38;1030622;28;20026;-67
2022/10/11 00:04:39;;;;;;;16.65;5.13;;;;;;;11.22;100.00;96401.63;1034615;28;20026;-69
2022/10/11 00:05:09;;;;;;;9.05;4.88;;;;;;;11.22;100.00;96401.63;1034650;28;20444;-69
2022/10/11 00:05:42;;;;;;;8.38;4.45;;;;;;;11.23;100.00;96403.22;1033976;28;20033;-70
2022/10/11 00:06:13;;;;;;;11.13;4.45;;;;;;;11.23;100.00;96403.22;1030636;28;20019;-68
2022/10/11 00:06:43;;;;;;;14.80;5.00;;;;;;;11.25;100.00;96405.59;1026517;28;20026;-70
2022/10/11 00:07:14;;;;;;;7.40;4.55;;;;;;;11.23;100.00;96402.41;1026653;28;20486;-69
2022/10/11 00:07:44;;;;;;;8.43;4.40;;;;;;;11.25;100.00;96402.97;1026641;28;20664;-68
2022/10/11 00:08:15;;;;;;;13.43;5.82;;;;;;;11.25;100.00;96403.75;1026762;28;20114;-67
2022/10/11 00:08:45;;;;;;;8.23;4.53;;;;;;;11.25;100.00;96405.59;1033094;28;20108;-69
2022/10/11 00:09:15;;;;;;;12.55;4.75;;;;;;;11.26;100.00;96400.06;1030458;28;20031;-70
2022/10/11 00:09:46;;;;;;;8.35;5.13;;;;;;;11.25;100.00;96402.97;1026665;28;20413;-69
2022/10/11 00:10:16;;;;;;;9.15;4.20;;;;;;;11.25;100.00;96400.34;1026518;28;20037;-68
2022/10/11 00:11:00;;;;;;;7.30;4.82;;;;;;;11.24;100.00;96404.81;1022625;28;20040;-68
2022/10/11 00:11:31;;;;;;;9.88;4.78;;;;;;;11.24;100.00;96411.91;1032490;28;20032;-68
2022/10/11 00:12:01;;;;;;;9.32;3.75;;;;;;;11.25;100.00;96408.22;1034563;28;20939;-68
2022/10/11 00:12:32;;;;;;;10.73;4.40;;;;;;;11.26;100.00;96407.16;1034674;28;20022;-68
2022/10/11 00:13:02;;;;;;;6.38;3.90;;;;;;;11.19;100.00;96404.75;1034349;28;20037;-69
2022/10/11 00:13:33;;;;;;;7.13;4.05;;;;;;;11.11;100.00;96389.47;1026427;28;20033;-67
2022/10/11 00:14:04;;;;;;;10.02;4.82;;;;;;;11.23;100.00;96407.66;1026607;28;20054;-68
2022/10/11 00:14:34;;;;;;;8.82;4.65;;;;;;;11.21;100.00;96405.31;1026807;28;20462;-71
2022/10/11 00:15:05;;;;;;;8.52;4.88;;;;;;;11.22;100.00;96406.09;1030452;28;20276;-68
2022/10/11 00:15:38;;;;;;;9.65;4.75;;;;;;;11.21;100.00;96407.94;1032579;28;20022;-69
2022/10/11 00:16:10;;;;;;;8.07;4.38;;;;;;;11.22;100.00;96403.47;1030614;28;20034;-69
2022/10/11 00:16:43;;;;;;;8.68;4.22;;;;;;;11.21;100.00;96405.31;1026616;28;20266;-69
2022/10/11 00:17:13;;;;;;;6.75;4.20;;;;;;;11.21;100.00;96404.50;1026257;28;20262;-68
2022/10/11 00:17:44;;;;;;;12.75;4.18;;;;;;;11.18;100.00;96399.75;1027198;28;20274;-69
2022/10/11 00:18:14;;;;;;;7.25;4.55;;;;;;;11.18;100.00;96400.56;1031137;28;20034;-68
2022/10/11 00:18:45;;;;;;;9.98;4.60;;;;;;;11.16;100.00;96407.88;1027311;28;20090;-68
2022/10/11 00:19:15;;;;;;;9.02;4.97;;;;;;;11.14;100.00;96403.94;1026484;28;20043;-69
2022/10/11 00:19:46;;;;;;;11.30;4.25;;;;;;;11.15;100.00;96405.50;1021561;29;20035;-68
2022/10/11 00:20:16;;;;;;;9.48;4.20;;;;;;;11.13;100.00;96397.88;1018490;28;20032;-69
2022/10/11 00:20:47;;;;;;;7.10;4.28;;;;;;;11.15;100.00;96400.25;1026486;28;20495;-68
2022/10/11 00:21:19;;;;;;;8.25;4.90;;;;;;;11.14;100.00;96409.19;1030457;28;20522;-70
2022/10/11 00:21:49;;;;;;;9.30;4.22;;;;;;;11.12;100.00;96404.16;1034697;28;20461;-67
2022/10/11 00:22:20;;;;;;;10.40;3.97;;;;;;;11.12;100.00;96400.75;1034718;28;20269;-69
2022/10/11 00:22:50;;;;;;;7.55;4.30;;;;;;;11.09;100.00;96405.44;1033304;28;20690;-68
2022/10/11 00:23:21;;;;;;;9.10;4.25;;;;;;;11.06;100.00;96403.31;1028373;28;20505;-69
2022/10/11 00:23:51;;;;;;;8.60;4.10;;;;;;;11.08;100.00;96406.50;1030407;28;20030;-68
2022/10/11 00:24:22;;;;;;;8.52;4.38;;;;;;;11.04;100.00;96400.16;1030481;28;20022;-67
2022/10/11 00:24:52;;;;;;;7.13;4.07;;;;;;;11.02;100.00;96404.88;1030686;28;20034;-68
2022/10/11 00:25:23;;;;;;;8.73;4.32;;;;;;;11.01;100.00;96403.28;1033842;28;20029;-67
2022/10/11 00:26:00;;;;;;;8.02;4.30;;;;;;;11.02;100.00;96401.44;1034280;28;20496;-68
2022/10/11 00:26:30;;;;;;;7.85;4.43;;;;;;;11.01;100.00;96399.88;1034590;28;20123;-69
2022/10/11 00:27:01;;;;;;;7.13;4.72;;;;;;;10.99;100.00;96402.72;1034688;28;20319;-67
2022/10/11 00:27:32;;;;;;;10.00;4.38;;;;;;;11.00;100.00;96400.88;1037539;28;20083;-68
2022/10/11 00:28:02;;;;;;;12.25;5.18;;;;;;;10.96;100.00;96402.44;1034665;28;20033;-69
2022/10/11 00:28:33;;;;;;;8.77;4.28;;;;;;;10.92;100.00;96402.13;1030299;28;20283;-72
2022/10/11 00:29:04;;;;;;;9.48;4.78;;;;;;;10.92;100.00;96396.88;1026430;28;20023;-68
2022/10/11 00:29:36;;;;;;;7.55;3.88;;;;;;;10.93;100.00;96397.69;1026524;28;20038;-70
2022/10/11 00:30:07;;;;;;;9.75;4.25;;;;;;;10.88;100.00;96395.03;1030451;28;20661;-68
2022/10/11 00:30:41;;;;;;;10.10;4.75;;;;;;;10.91;100.00;96405.03;1026796;28;20033;-68
2022/10/11 00:31:13;;;;;;;9.15;3.92;;;;;;;10.90;100.00;96395.53;1026491;28;20700;-68
2022/10/11 00:31:44;;;;;;;7.72;4.10;;;;;;;10.90;100.00;96396.38;1026432;28;20281;-68
2022/10/11 00:32:14;;;;;;;8.02;4.40;;;;;;;10.88;100.00;96395.81;1026424;28;20290;-70
2022/10/11 00:32:44;;;;;;;11.65;3.90;;;;;;;10.87;100.00;96399.47;1022896;28;20023;-68
2022/10/11 00:33:15;;;;;;;10.25;3.90;;;;;;;10.89;100.00;96401.84;1026785;28;20035;-71
2022/10/11 00:33:45;;;;;;;15.13;4.55;;;;;;;10.93;100.00;96405.56;1026544;28;20035;-68
2022/10/11 00:34:16;;;;;;;9.88;4.80;;;;;;;10.92;100.00;96407.38;1026435;28;20748;-68
2022/10/11 00:34:47;;;;;;;9.63;4.22;;;;;;;10.92;100.00;96396.09;1030529;28;20033;-68
2022/10/11 00:35:18;;;;;;;10.52;4.22;;;;;;;10.93;100.00;96403.75;1022615;28;20298;-68
2022/10/11 00:35:48;;;;;;;7.63;4.00;;;;;;;10.94;100.00;96404.53;1024278;28;20038;-68
2022/10/11 00:36:18;;;;;;;8.90;5.10;;;;;;;10.94;100.00;96400.06;1022464;29;20027;-69
2022/10/11 00:36:49;;;;;;;7.00;4.32;;;;;;;10.94;100.00;96400.06;1018814;28;20072;-68
2022/10/11 00:37:19;;;;;;;8.10;4.60;;;;;;;10.95;100.00;96395.59;1026510;28;20042;-67
2022/10/11 00:37:50;;;;;;;6.53;3.80;;;;;;;10.94;100.00;96400.06;1030317;28;20026;-69
2022/10/11 00:38:20;;;;;;;8.68;4.70;;;;;;;10.96;100.00;96397.19;1026509;28;20038;-68
2022/10/11 00:38:51;;;;;;;7.95;4.63;;;;;;;10.94;100.00;96394.81;1030571;28;20022;-69
2022/10/11 00:39:21;;;;;;;7.55;4.00;;;;;;;10.93;100.00;96395.06;1026227;28;20038;-68
2022/10/11 00:39:52;;;;;;;8.80;3.88;;;;;;;10.92;100.00;96396.88;1022711;28;20012;-67
2022/10/11 00:40:22;;;;;;;8.40;4.35;;;;;;;10.93;100.00;96395.06;1022467;29;20035;-68
2022/10/11 00:40:53;;;;;;;10.75;4.65;;;;;;;10.93;100.00;96398.50;1026432;28;20113;-69
2022/10/11 00:41:23;;;;;;;8.63;4.40;;;;;;;10.94;100.00;96392.19;1026575;28;20046;-68
2022/10/11 00:41:54;;;;;;;10.13;4.43;;;;;;;10.92;100.00;96390.84;1030651;28;20038;-70
2022/10/11 00:42:24;;;;;;;7.95;4.50;;;;;;;10.93;100.00;96393.25;1034304;28;20029;-70
2022/10/11 00:42:55;;;;;;;8.90;4.40;;;;;;;10.94;100.00;96397.44;1030514;28;20109;-71
2022/10/11 00:43:26;;;;;;;10.45;4.63;;;;;;;10.94;100.00;96386.16;1034414;28;20034;-69
2022/10/11 00:44:09;;;;;;;6.45;4.40;;;;;;;10.94;100.00;96388.78;1030379;28;20101;-69
2022/10/11 00:44:41;;;;;;;14.05;4.78;;;;;;;10.93;100.00;96395.88;1032720;28;20257;-69
2022/10/11 00:45:30;;;;;;;9.63;4.88;;;;;;;10.92;100.00;96393.47;1032391;28;20292;-70
2022/10/11 00:46:17;;;;;;;9.98;4.95;;;;;;;10.89;100.00;96391.34;1030370;28;20266;-68
2022/10/11 00:47:05;;;;;;;7.43;3.92;;;;;;;10.89;100.00;96386.88;1026574;28;20748;-70
2022/10/11 00:47:35;;;;;;;9.10;4.80;;;;;;;10.90;100.00;96392.91;1030900;28;20266;-69
2022/10/11 00:48:17;;;;;;;8.98;4.05;;;;;;;10.91;100.00;96389.28;1034644;28;20265;-69
2022/10/11 00:48:49;;;;;;;12.52;4.43;;;;;;;10.89;100.00;96392.13;1034543;28;20134;-71
2022/10/11 00:49:27;;;;;;;8.52;3.90;;;;;;;10.87;100.00;96388.97;1022393;29;20348;-70
2022/10/11 00:49:58;;;;;;;7.93;4.88;;;;;;;10.89;100.00;96386.09;1026591;28;20269;-68
2022/10/11 00:50:32;;;;;;;15.00;6.25;;;;;;;10.88;100.00;96390.56;1022457;29;20765;-69
2022/10/11 00:51:05;;;;;;;11.50;4.03;;;;;;;10.91;100.00;96387.44;1027242;28;20796;-68
2022/10/11 00:51:56;;;;;;;9.52;4.18;;;;;;;10.91;100.00;96384.81;1026616;28;20650;-68
2022/10/11 00:52:34;;;;;;;12.20;4.78;;;;;;;10.92;100.00;96386.38;1033811;28;20407;-69
2022/10/11 00:53:06;;;;;;;8.85;3.92;;;;;;;10.92;100.00;96389.00;1030437;28;20269;-68
2022/10/11 00:53:37;;;;;;;8.35;4.53;;;;;;;10.94;100.00;96380.91;1022556;29;20259;-69
2022/10/11 00:54:10;;;;;;;6.72;4.30;;;;;;;10.95;100.00;96380.63;1016063;29;21063;-69
2022/10/11 00:54:42;;;;;;;7.00;4.43;;;;;;;10.95;100.00;96382.47;1010447;29;20028;-67
2022/10/11 00:55:13;;;;;;;12.65;5.75;;;;;;;10.96;100.00;96384.84;1010848;29;20273;-70
2022/10/11 00:55:50;;;;;;;5.85;3.83;;;;;;;10.96;100.00;96384.84;1010944;29;20280;-68
2022/10/11 00:56:25;;;;;;;9.60;4.60;;;;;;;10.95;100.00;96380.63;1024837;28;20348;-68
2022/10/11 00:57:00;;;;;;;9.30;4.43;;;;;;;10.99;100.00;96384.34;1028130;28;20272;-68
2022/10/11 00:57:31;;;;;;;8.27;4.85;;;;;;;10.97;100.00;96389.06;1030517;28;20270;-68
2022/10/11 00:58:01;;;;;;;8.00;4.43;;;;;;;10.97;100.00;96378.56;1026332;28;20269;-68
2022/10/11 00:58:33;;;;;;;6.03;4.10;;;;;;;10.97;100.00;96383.03;1030584;28;20477;-68
2022/10/11 00:59:07;;;;;;;8.63;4.45;;;;;;;10.97;100.00;96383.81;1022355;28;20015;-70
2022/10/11 00:59:41;;;;;;;6.97;4.35;;;;;;;10.99;100.00;96386.19;1027764;28;20481;-68
2022/10/11 01:00:12;;;;;;;7.32;4.05;;;;;;;10.97;100.00;96383.03;1026555;28;21033;-69
2022/10/11 01:00:42;;;;;;;6.00;3.85;;;;;;;10.90;100.00;96372.72;1033509;28;20261;-68
2022/10/11 01:01:12;;;;;;;5.28;3.90;;;;;;;11.00;100.00;96383.31;1034329;28;20253;-68
2022/10/11 01:01:43;;;;;;;10.98;4.78;;;;;;;11.02;100.00;96381.22;1034485;28;20033;-69
2022/10/11 01:02:13;;;;;;;9.77;4.60;;;;;;;11.01;100.00;96382.28;1034568;28;20022;-69
2022/10/11 01:02:44;;;;;;;12.15;4.53;;;;;;;11.04;100.00;96384.41;1034507;28;20022;-67
2022/10/11 01:03:16;;;;;;;10.63;5.10;;;;;;;11.06;100.00;96382.31;1034446;28;20010;-68
2022/10/11 01:03:46;;;;;;;9.75;4.28;;;;;;;11.06;100.00;96387.56;1030026;28;20022;-68
2022/10/11 01:04:17;;;;;;;12.05;5.05;;;;;;;11.06;100.00;96387.56;1030560;28;20549;-67
2022/10/11 01:04:48;;;;;;;7.78;4.32;;;;;;;11.06;100.00;96386.78;1026260;28;20038;-69
2022/10/11 01:05:18;;;;;;;9.48;4.65;;;;;;;11.07;100.00;96391.00;1022731;28;20019;-68
2022/10/11 01:05:49;;;;;;;7.25;4.75;;;;;;;11.09;100.00;96389.69;1026144;28;20033;-68
2022/10/11 01:06:19;;;;;;;7.95;4.50;;;;;;;11.11;100.00;96388.66;1030604;28;20027;-68
2022/10/11 01:06:50;;;;;;;7.32;4.57;;;;;;;11.01;100.00;96379.66;1034326;28;20026;-69
2022/10/11 01:07:20;;;;;;;10.32;4.22;;;;;;;11.04;100.00;96383.63;1026535;28;20023;-68
2022/10/11 01:07:51;;;;;;;12.25;4.97;;;;;;;11.08;100.00;96396.00;1026439;28;20018;-67
2022/10/11 01:08:22;;;;;;;8.88;4.68;;;;;;;11.10;100.00;96393.13;1026534;28;20333;-67
2022/10/11 01:08:52;;;;;;;5.90;4.18;;;;;;;11.11;100.00;96388.66;1026849;28;20506;-68
2022/10/11 01:09:22;;;;;;;7.82;4.25;;;;;;;11.13;100.00;96392.59;1026415;28;20085;-68
2022/10/11 01:09:53;;;;;;;6.72;4.03;;;;;;;11.14;100.00;96393.44;1030429;28;20018;-68
2022/10/11 01:10:23;;;;;;;7.13;4.53;;;;;;;11.13;100.00;96387.34;1030211;28;20034;-69
2022/10/11 01:10:54;;;;;;;7.53;4.43;;;;;;;11.12;100.00;96390.25;1030488;28;20014;-68
2022/10/11 01:11:25;;;;;;;7.90;4.22;;;;;;;11.15;100.00;96389.75;1026539;28;20098;-67
2022/10/11 01:11:57;;;;;;;8.88;4.13;;;;;;;11.16;100.00;96394.75;1030361;28;20029;-68
2022/10/11 01:12:28;;;;;;;7.93;4.60;;;;;;;11.16;100.00;96396.56;1022472;29;20030;-69
2022/10/11 01:13:01;;;;;;;16.27;4.75;;;;;;;11.17;100.00;96398.19;1018580;29;20631;-69
2022/10/11 01:14:04;;;;;;;11.10;4.72;;;;;;;11.17;100.00;96392.94;1018407;28;20020;-69
2022/10/11 01:15:04;;;;;;;8.18;4.93;;;;;;;11.20;100.00;96395.03;1034027;28;20264;-68
2022/10/11 01:15:46;;;;;;;9.02;3.95;;;;;;;11.17;100.00;96395.56;1036846;28;20279;-68
2022/10/11 01:16:31;;;;;;;9.15;4.63;;;;;;;11.19;100.00;96393.47;1021586;29;20268;-67
2022/10/11 01:17:03;;;;;;;8.07;4.60;;;;;;;11.09;100.00;96381.03;1027075;28;20305;-70
2022/10/11 01:18:06;;;;;;;9.25;4.88;;;;;;;11.23;100.00;96397.16;1027081;28;20607;-69
2022/10/11 01:18:47;;;;;;;9.98;4.55;;;;;;;11.19;100.00;96390.81;1031259;28;20344;-69
2022/10/11 01:19:20;;;;;;;;;;;;;;;11.22;100.00;96392.97;1025199;28;20876;-68
2022/10/11 01:19:56;;;;;;;8.48;3.92;;;;;;;11.20;100.00;96393.22;1027168;28;19910;-68
2022/10/11 01:20:57;;;;;;;8.98;4.43;;;;;;;11.20;100.00;96387.16;1027098;28;20282;-69
2022/10/11 01:21:39;;;;;;;9.00;4.55;;;;;;;11.21;100.00;96389.53;1031352;28;20266;-68
2022/10/11 01:22:28;;;;;;;12.07;5.28;;;;;;;11.22;100.00;96390.34;1029137;28;20026;-68
2022/10/11 01:23:20;;;;;;;7.22;4.63;;;;;;;11.25;100.00;96389.84;1026290;28;20550;-69
2022/10/11 01:24:10;;;;;;;9.10;4.43;;;;;;;11.25;100.00;96387.22;1026991;28;20816;-70
2022/10/11 01:25:00;;;;;;;11.65;4.90;;;;;;;11.23;100.00;96387.47;1028776;28;20685;-67
2022/10/11 01:25:38;;;;;;;9.60;4.78;;;;;;;11.22;100.00;96382.44;1032223;28;20018;-68
2022/10/11 01:26:46;;;;;;;11.57;4.93;;;;;;;11.23;100.00;96387.47;1034795;28;20303;-69
2022/10/11 01:27:31;;;;;;;11.13;4.47;;;;;;;11.22;100.00;96385.88;1031135;28;20285;-70
2022/10/11 01:28:09;;;;;;;6.10;4.03;;;;;;;11.21;100.00;96383.50;1038548;28;20303;-68
2022/10/11 01:28:50;;;;;;;8.63;4.35;;;;;;;11.22;100.00;96379.81;1035408;28;20277;-68
2022/10/11 01:29:23;;;;;;;;;;;;;;;11.23;100.00;96386.66;1031680;28;20270;-69
2022/10/11 01:30:04;;;;;;;12.95;5.50;;;;;;;11.21;100.00;96379.03;1028459;28;19914;-68
2022/10/11 01:30:35;;;;;;;11.30;5.13;;;;;;;11.23;100.00;96386.66;1034259;28;20729;-67
2022/10/11 01:31:29;;;;;;;10.45;5.00;;;;;;;11.22;100.00;96377.19;1037297;28;20279;-68
2022/10/11 01:32:31;;;;;;;10.23;4.80;;;;;;;11.21;100.00;96388.75;1039551;28;20314;-68
2022/10/11 01:33:26;;;;;;;11.73;4.75;;;;;;;11.20;100.00;96387.16;1026879;28;20262;-67
2022/10/11 01:34:14;;;;;;;11.50;4.68;;;;;;;11.16;100.00;96386.06;1023165;28;20325;-69
2022/10/11 01:34:55;;;;;;;11.82;4.70;;;;;;;11.19;100.00;96388.19;1027198;28;20282;-68
2022/10/11 01:36:18;;;;;;;11.77;5.00;;;;;;;11.17;100.00;96388.47;1026682;28;20272;-68
2022/10/11 01:36:53;;;;;;;9.63;4.80;;;;;;;11.15;100.00;96389.75;1019106;29;20960;-68
2022/10/11 01:37:29;;;;;;;8.65;4.20;;;;;;;11.11;100.00;96373.69;1018929;29;20267;-69
2022/10/11 01:38:21;;;;;;;7.90;4.53;;;;;;;11.13;100.00;96378.69;1011186;29;20670;-69
2022/10/11 01:38:55;;;;;;;8.80;5.22;;;;;;;11.12;100.00;96379.75;1010846;29;20332;-69
2022/10/11 01:39:59;;;;;;;12.05;5.07;;;;;;;11.07;100.00;96378.66;1014164;29;20272;-68
2022/10/11 01:40:34;;;;;;;15.98;5.38;;;;;;;11.11;100.00;96381.59;1022401;28;20269;-69
2022/10/11 01:41:16;;;;;;;8.73;5.28;;;;;;;11.11;100.00;96383.41;1025614;28;20277;-67
2022/10/11 01:41:49;;;;;;;13.82;5.45;;;;;;;11.09;100.00;96378.41;1023044;29;20267;-68
2022/10/11 01:42:19;;;;;;;7.68;4.50;;;;;;;11.10;100.00;96380.00;1025202;28;20735;-68
2022/10/11 01:42:50;;;;;;;9.32;5.18;;;;;;;11.11;100.00;96383.41;1026851;28;20277;-67
2022/10/11 01:43:20;;;;;;;9.40;4.55;;;;;;;11.09;100.00;96376.56;1027585;28;20046;-68
2022/10/11 01:43:52;;;;;;;6.72;4.28;;;;;;;11.11;100.00;96383.41;1027228;28;20554;-69
2022/10/11 01:44:23;;;;;;;11.05;5.38;;;;;;;11.11;100.00;96383.41;1027495;28;20098;-69
2022/10/11 01:44:53;;;;;;;8.00;5.20;;;;;;;11.10;100.00;96382.63;1031060;28;20269;-69
2022/10/11 01:45:24;;;;;;;10.00;4.85;;;;;;;11.05;100.00;96367.59;1026727;28;20516;-68
2022/10/11 01:45:55;;;;;;;7.35;4.05;;;;;;;11.10;100.00;96377.38;1030858;28;20022;-68
2022/10/11 01:46:27;;;;;;;11.35;4.95;;;;;;;11.09;100.00;96383.66;1027214;28;20037;-71
2022/10/11 01:46:57;;;;;;;8.93;5.25;;;;;;;11.08;100.00;96377.59;1031131;28;20178;-68
2022/10/11 01:47:28;;;;;;;11.57;5.13;;;;;;;11.06;100.00;96379.69;1031596;28;20277;-67
2022/10/11 01:48:06;;;;;;;7.80;5.03;;;;;;;11.08;100.00;96380.25;1031217;28;20038;-69
2022/10/11 01:48:47;;;;;;;10.32;4.70;;;;;;;11.08;100.00;96376.81;1029712;28;20046;-68
2022/10/11 01:49:18;;;;;;;9.13;4.93;;;;;;;11.06;100.00;96373.63;1031566;28;20301;-68
2022/10/11 01:49:59;;;;;;;10.23;4.95;;;;;;;11.01;100.00;96369.16;1031220;28;20270;-68
2022/10/11 01:50:50;;;;;;;10.25;5.15;;;;;;;11.06;100.00;96381.53;1031202;28;20561;-67
2022/10/11 01:51:23;;;;;;;8.77;4.57;;;;;;;11.04;100.00;96381.78;1035176;28;20277;-68
2022/10/11 01:51:54;;;;;;;10.60;4.68;;;;;;;11.06;100.00;96384.16;1031205;28;20276;-69
2022/10/11 01:52:26;;;;;;;13.15;5.38;;;;;;;11.02;100.00;96372.56;1031256;28;20322;-68
2022/10/11 01:52:56;;;;;;;11.85;4.85;;;;;;;11.05;100.00;96383.34;1022330;29;20073;-67
2022/10/11 01:53:45;;;;;;;9.55;4.93;;;;;;;11.02;100.00;96375.97;1023599;28;20034;-67
2022/10/11 01:54:38;;;;;;;6.63;4.47;;;;;;;11.01;100.00;96384.13;1019349;29;20170;-68
2022/10/11 01:55:20;;;;;;;9.68;4.53;;;;;;;11.03;100.00;96384.63;1023129;29;20772;-68
2022/10/11 01:56:48;;;;;;;8.40;5.10;;;;;;;11.02;100.00;96378.59;1025555;28;20258;-68
2022/10/11 01:57:52;;;;;;;7.65;3.92;;;;;;;11.03;100.00;96374.97;1022820;29;20813;-68
2022/10/11 01:58:25;;;;;;;8.95;4.22;;;;;;;11.01;100.00;96382.28;1027091;28;20355;-67
2022/10/11 01:59:19;;;;;;;13.95;5.30;;;;;;;10.99;100.00;96373.84;1021822;29;20298;-68
2022/10/11 01:59:57;;;;;;;11.52;4.40;;;;;;;11.00;100.00;96374.63;1022738;28;20338;-68
2022/10/11 02:00:32;;;;;;;8.02;4.78;;;;;;;10.99;100.00;96370.44;1018005;29;20279;-69
2022/10/11 02:01:09;;;;;;;7.25;5.07;;;;;;;10.99;100.00;96371.22;1016877;29;20271;-69
2022/10/11 02:02:16;;;;;;;13.13;5.07;;;;;;;11.00;100.00;96364.94;1011241;29;20257;-70
2022/10/11 02:02:55;;;;;;;7.15;4.35;;;;;;;11.00;100.00;96362.31;1022074;28;20787;-68
2022/10/11 02:03:38;;;;;;;9.80;4.40;;;;;;;10.99;100.00;96370.44;1030761;28;20273;-67
2022/10/11 02:04:16;;;;;;;11.20;4.68;;;;;;;11.02;100.00;96364.69;1031097;28;20874;-68
2022/10/11 02:05:08;;;;;;;10.27;4.97;;;;;;;10.99;100.00;96360.72;1031262;28;20753;-69
2022/10/11 02:05:49;;;;;;;10.13;5.60;;;;;;;10.98;100.00;96367.03;1026301;28;20288;-69
2022/10/11 02:06:34;;;;;;;10.55;5.13;;;;;;;10.99;100.00;96373.06;1018908;29;20973;-68
2022/10/11 02:07:14;;;;;;;7.97;4.97;;;;;;;10.99;100.00;96371.22;1021940;29;20263;-67
2022/10/11 02:08:07;;;;;;;10.93;5.38;;;;;;;10.98;100.00;96369.66;1022818;29;20257;-68
2022/10/11 02:08:48;;;;;;;6.82;4.47;;;;;;;10.99;100.00;96370.44;1030822;28;20262;-68
2022/10/11 02:09:23;;;;;;;12.13;4.40;;;;;;;10.99;100.00;96375.69;1031140;28;20270;-70
2022/10/11 02:10:03;;;;;;;8.32;4.85;;;;;;;10.98;100.00;96379.34;1022879;28;20266;-71
2022/10/11 02:10:57;;;;;;;10.07;4.93;;;;;;;10.97;100.00;96372.53;1026316;28;20381;-69
2022/10/11 02:11:30;;;;;;;10.27;4.57;;;;;;;10.95;100.00;96372.75;1024062;28;20021;-69
2022/10/11 02:12:06;;;;;;;10.30;4.90;;;;;;;10.92;100.00;96365.38;1022882;29;20350;-69
2022/10/11 02:13:04;;;;;;;15.05;4.90;;;;;;;10.97;100.00;96375.16;1026990;28;20286;-69
2022/10/11 02:13:38;;;;;;;7.82;4.30;;;;;;;10.95;100.00;96375.38;1029752;28;20281;-67
2022/10/11 02:14:15;;;;;;;10.68;4.40;;;;;;;10.96;100.00;96376.97;1030323;28;20317;-69
2022/10/11 02:14:46;;;;;;;9.32;4.90;;;;;;;10.96;100.00;96371.72;1027095;28;20262;-70
2022/10/11 02:15:17;;;;;;;11.65;5.30;;;;;;;10.94;100.00;96373.03;1030835;28;20866;-67
2022/10/11 02:15:47;;;;;;;14.07;5.57;;;;;;;10.95;100.00;96369.34;1022263;29;20398;-70
2022/10/11 02:16:19;;;;;;;10.38;4.97;;;;;;;10.97;100.00;96378.56;1023129;29;20575;-69
2022/10/11 02:17:03;;;;;;;10.52;4.90;;;;;;;10.97;100.00;96373.31;1027054;28;20022;-69
2022/10/11 02:17:35;;;;;;;6.90;4.45;;;;;;;10.97;100.00;96373.31;1027104;28;20925;-70
2022/10/11 02:18:08;;;;;;;7.63;4.28;;;;;;;10.95;100.00;96375.38;1031061;28;20589;-68
2022/10/11 02:18:45;;;;;;;8.32;4.43;;;;;;;10.97;100.00;96368.06;1026916;28;20262;-68
2022/10/11 02:19:17;;;;;;;13.57;4.90;;;;;;;10.93;100.00;96377.50;1022990;29;20337;-68
2022/10/11 02:19:49;;;;;;;14.30;5.63;;;;;;;10.96;100.00;96371.72;1026977;28;20262;-67
2022/10/11 02:20:21;;;;;;;11.48;4.85;;;;;;;10.98;100.00;96372.28;1019106;29;20391;-68
2022/10/11 02:20:52;;;;;;;15.32;5.75;;;;;;;10.98;100.00;96374.91;1023024;29;20338;-68
2022/10/11 02:21:23;;;;;;;11.52;5.30;;;;;;;11.01;100.00;96373.63;1027025;28;20258;-68
2022/10/11 02:21:55;;;;;;;15.80;5.72;;;;;;;11.03;100.00;96376.75;1035056;28;20260;-68
2022/10/11 02:22:32;;;;;;;9.02;4.63;;;;;;;10.99;100.00;96375.69;1030887;28;20158;-70
2022/10/11 02:23:07;;;;;;;13.55;5.20;;;;;;;11.01;100.00;96379.66;1020460;29;20255;-71
2022/10/11 02:23:42;;;;;;;7.93;4.53;;;;;;;11.01;100.00;96378.88;1024829;28;20263;-67
2022/10/11 02:24:16;;;;;;;9.02;5.13;;;;;;;11.01;100.00;96376.25;1022766;29;20278;-69
2022/10/11 02:24:49;;;;;;;10.02;4.53;;;;;;;11.00;100.00;96375.44;1023085;29;20271;-67
2022/10/11 02:25:23;;;;;;;8.70;5.15;;;;;;;10.99;100.00;96381.72;1026924;28;20270;-66
2022/10/11 02:25:53;;;;;;;9.45;5.28;;;;;;;10.99;100.00;96381.72;1027082;28;20781;-69
2022/10/11 02:26:24;;;;;;;8.52;4.82;;;;;;;11.00;100.00;96378.06;1024589;28;20266;-68
2022/10/11 02:26:54;;;;;;;8.65;5.45;;;;;;;11.01;100.00;96376.25;1024064;28;20038;-69
2022/10/11 02:27:27;;;;;;;12.20;6.22;;;;;;;11.01;100.00;96378.88;1030575;28;20019;-67
2022/10/11 02:27:58;;;;;;;6.93;4.53;;;;;;;10.99;100.00;96371.22;1030843;28;20105;-67
2022/10/11 02:28:30;;;;;;;10.18;6.72;;;;;;;10.99;100.00;96371.22;1022573;29;20877;-68
2022/10/11 02:29:02;;;;;;;11.23;5.15;;;;;;;10.99;100.00;96371.22;1018805;29;20782;-67
2022/10/11 02:29:35;;;;;;;16.17;5.95;;;;;;;11.04;100.00;96379.16;1030659;28;20269;-69
2022/10/11 02:30:06;;;;;;;9.15;5.35;;;;;;;11.01;100.00;96374.41;1026786;28;20269;-70
2022/10/11 02:30:36;;;;;;;11.65;5.43;;;;;;;11.02;100.00;96373.34;1018424;29;20272;-68
2022/10/11 02:31:07;;;;;;;16.48;5.20;;;;;;;11.04;100.00;96371.28;1022886;29;20267;-70
2022/10/11 02:31:37;;;;;;;8.07;4.90;;;;;;;11.03;100.00;96376.75;1022816;29;20035;-69
2022/10/11 02:32:08;;;;;;;10.60;5.13;;;;;;;11.04;100.00;96376.53;1026788;28;20022;-69
2022/10/11 02:32:39;;;;;;;10.88;5.20;;;;;;;10.98;100.00;96372.28;1029882;28;20026;-70
2022/10/11 02:33:11;;;;;;;7.78;4.95;;;;;;;11.01;100.00;96378.88;1026730;28;20042;-69
2022/10/11 02:33:49;;;;;;;12.60;4.57;;;;;;;11.01;100.00;96379.66;1018915;29;20280;-69
2022/10/11 02:34:22;;;;;;;21.05;6.10;;;;;;;11.00;100.00;96383.31;1022694;29;20354;-70
2022/10/11 02:34:54;;;;;;;9.43;5.13;;;;;;;11.01;100.00;96379.66;1026414;28;20356;-70
2022/10/11 02:35:26;;;;;;;7.20;4.20;;;;;;;10.98;100.00;96377.53;1030168;28;20018;-70
2022/10/11 02:35:59;;;;;;;6.88;4.45;;;;;;;11.04;100.00;96383.63;1030327;28;20280;-68
2022/10/11 02:36:50;;;;;;;7.65;4.68;;;;;;;11.05;100.00;96385.19;1030781;28;20037;-68
2022/10/11 02:37:26;;;;;;;11.98;5.03;;;;;;;11.01;100.00;96384.91;1034992;28;20204;-69
2022/10/11 02:38:07;;;;;;;9.63;4.57;;;;;;;11.06;100.00;96389.41;1030885;28;20523;-70
2022/10/11 02:38:38;;;;;;;;;;;;;;;11.05;100.00;96390.44;1035331;28;20275;-67
2022/10/11 02:39:24;;;;;;;7.93;4.15;;;;;;;11.06;100.00;96387.56;1034559;28;19909;-70
2022/10/11 02:40:04;;;;;;;10.98;4.65;;;;;;;11.04;100.00;96387.03;1034831;28;20359;-68
2022/10/11 02:40:35;;;;;;;;;;;;;;;11.06;100.00;96392.81;1031466;28;20329;-68
2022/10/11 02:41:31;;;;;;;9.52;4.82;;;;;;;11.02;100.00;96391.72;1034654;28;19913;-70
2022/10/11 02:42:03;;;;;;;15.05;4.57;;;;;;;11.01;100.00;96390.16;1023498;28;20589;-70
2022/10/11 02:42:43;;;;;;;11.43;5.35;;;;;;;11.03;100.00;96388.09;1026615;28;20266;-68
2022/10/11 02:43:17;;;;;;;17.88;6.05;;;;;;;11.06;100.00;96386.78;1026557;28;20698;-67
2022/10/11 02:43:51;;;;;;;13.73;5.20;;;;;;;11.04;100.00;96387.03;1030830;28;20323;-68
2022/10/11 02:44:34;;;;;;;9.55;5.53;;;;;;;11.01;100.00;96386.75;1029187;28;20274;-68
2022/10/11 02:45:09;;;;;;;7.30;4.55;;;;;;;11.01;100.00;96384.91;1029290;28;20269;-71
2022/10/11 02:45:41;;;;;;;11.20;5.03;;;;;;;11.04;100.00;96383.63;1031257;28;20284;-68
2022/10/11 02:46:11;;;;;;;10.60;5.40;;;;;;;11.01;100.00;96384.13;1030559;28;20280;-68